Create Custom Reports and Graphics: Custom Report

Soquel - CalFire

Current Conditions

12/13/19 8:30 PM (-08:00)
Updated Every 15 Minutes
Temp 52.8 °F   0.5
RH 94 %   0
Dew Pt 51.2 °F   0.5
Wind Spd 0.4 mph
Wind Dir ESE | 106 °
Wind Gust 0.8 mph   0.1
Latest Rain 0.00 In
Daily Rain 0.03 In
Leaf Wet 15.0 mins
Daily Min Temp 48.6 °F   4.5
Daily Max Temp 58.1 °F   1.5

Daily Summary

Last 30 Days

Daily Data | America/Los_Angeles
as of 12/13/19 8:33 PM PST
Date Daily Max Temp (°F) Daily Min Temp (°F) Daily Rain (In) Seasonal Rainfall (In) Daily Solar Rad (Cal/cm2) Daily ETo (in) Wind Spd (mph) Daily Max Wind (mph) Max Wind Dir (°) Dew Pt (°F) Max RH (%) Min RH (%) Leaf Wet (hrs) Soil Temp (°F) Soil Moist1 (%) Fuel Moisture (%) Max Fuel Moisture (%) Min Fuel Moisture (%) Bat Volt Min Day (V)
12/12/19 59.6 51.9 0.09 11.36 81 0.02 0.4 3.9 SSW | 200 54.2 95 94 24.0 55.8 30.1 56 60 50 11.83
12/11/19 55.1 45.1 0.19 11.27 64 0.02 0.5 4.4 NNW | 328 49.3 95 90 24.0 55.9 29.2 56 60 49 11.86
12/10/19 56.8 43.4 0.12 11.08 172 0.04 0.9 6.0 WSW | 238 46.1 95 76 19.2 55.9 28.5 48 57 38 11.79
12/9/19 56.6 43.4 0.01 10.96 133 0.03 0.8 5.1 NE | 51 45.8 95 82 19.9 55.8 29.1 55 62 45 11.80
12/8/19 55.8 47.3 0.76 10.95 119 0.03 1.3 13.8 S | 179 49.7 95 85 23.6 55.7 30.8 58 61 48 11.83
12/7/19 54.9 52.2 1.10 10.19 34 0.01 3.6 20.6 SSW | 211 51.9 95 90 24.0 55.8 31.2 56 59 51 11.86
12/6/19 59.3 48.8 0.55 9.09 118 0.03 1.4 13.8 N | 6 48.2 94 61 15.7 55.8 28.6 46 55 37 11.85
12/5/19 56.7 46.1 0.00 8.54 74 0.02 0.7 6.4 SSE | 152 48.9 95 82 18.2 55.8 28.9 55 61 49 11.87
12/4/19 57.7 49.1 0.80 8.54 115 0.03 0.9 8.5 ENE | 66 50.0 95 82 23.8 55.9 30.4 56 60 48 11.89
12/3/19 63.7 47.1 0.15 7.74 130 0.03 1.1 7.3 NNE | 31 48.7 95 58 16.7 56.2 28.8 55 62 44 11.88
12/2/19 54.3 49.0 1.71 7.59 43 0.01 1.9 12.4 NE | 41 49.4 95 92 24.0 57.0 30.8 60 62 58 11.91
12/1/19 50.4 46.2 3.00 5.88 31 0.01 2.6 14.2 N | 3 47.0 94 91 24.0 57.8 30.0 57 59 55 11.89
11/30/19 46.6 36.9 0.94 2.88 46 0.01 2.0 15.3 N | 353 39.9 95 83 24.0 58.3 22.8 52 55 48 11.88
11/29/19 49.0 32.7 0.07 1.94 159 0.03 1.2 8.9 SSW | 202 35.9 95 59 21.6 58.8 21.0 41 49 31 11.83
11/28/19 45.9 33.0 0.05 1.87 125 0.02 1.1 6.5 WSW | 241 35.4 95 73 20.3 59.2 21.4 42 52 31 11.86
11/27/19 45.9 36.1 0.29 1.82 125 0.02 1.0 9.4 SW | 232 37.8 94 80 24.0 59.6 21.1 46 50 38 11.90
11/26/19 51.5 39.5 1.32 1.53 95 0.02 1.7 12.9 SSE | 151 30.3 94 33 9.0 59.9 12.2 19 42 8 11.93
11/25/19 61.2 44.4 0.00 0.21 257 0.05 2.6 21.9 SSE | 152 28.0 59 18 0.0 60.1 10.8 8 11 2 11.99
11/24/19 71.8 48.8 0.00 0.21 257 0.06 1.4 7.1 SSW | 212 33.6 56 23 0.0 60.3 10.8 8 12 0 12.00
11/23/19 70.5 49.7 0.00 0.21 252 0.06 1.4 7.1 SW | 222 37.6 69 30 0.0 60.6 10.9 10 16 0 12.02
11/22/19 64.8 43.5 0.00 0.21 251 0.06 1.2 7.5 SE | 133 42.3 91 40 9.6 60.8 10.9 14 22 2 11.94
11/21/19 60.6 43.5 0.00 0.21 163 0.04 1.0 6.5 SW | 234 40.7 90 47 5.3 60.9 11.0 11 17 4 11.99
11/20/19 65.7 46.9 0.00 0.21 225 0.05 1.8 15.5 WNW | 285 35.6 88 26 2.5 61.0 11.0 10 15 0 12.03
11/19/19 64.5 47.9 0.00 0.21 266 0.06 1.8 12.5 SSE | 156 44.0 87 42 0.5 61.1 11.1 8 12 0 12.01
11/18/19 83.1 59.3 0.00 0.21 270 0.07 1.4 6.4 NE | 38 35.8 49 14 0.0 61.1 11.1 6 9 0 12.05
11/17/19 82.0 56.8 0.00 0.21 268 0.07 1.3 6.0 NNE | 24 39.7 54 25 0.0 61.2 11.1 7 12 0 12.06
11/16/19 73.9 51.0 0.00 0.21 264 0.06 1.3 8.1 NNE | 16 45.1 90 33 3.8 61.3 11.1 12 22 0 12.06
11/15/19 69.2 47.8 0.00 0.21 209 0.05 1.3 10.1 N | 5 48.0 92 46 12.6 61.4 11.2 14 20 0 11.94
11/14/19 57.2 48.5 0.00 0.21 70 0.02 0.7 7.1 W | 274 48.3 92 71 9.2 61.4 11.2 14 18 10 11.97
11/13/19 67.8 48.3 0.00 0.21 215 0.05 0.9 5.9 W | 261 43.9 92 38 1.5 61.4 11.1 7 12 0 12.03
Max 83.1 59.3 3.00 - 270 0.07 3.6 21.9 - 54.2 95 94 24.0 61.4 31.2 60 62 58 12.06
Avg - - - - - - 1.4 - - 43.0 - - - 58.7 19.9 33 39 25 -
Min 45.9 32.7 0.00 - 31 0.01 0.4 3.9 - 28.0 49 14 0.0 55.7 10.8 6 9 0 11.79